createdAt,value
2022-09-23T00:00:08.814Z,3.60
2022-09-23T00:02:35.333Z,4.32
2022-09-23T00:05:01.779Z,4.18
2022-09-23T00:07:28.360Z,3.97
2022-09-23T00:09:54.883Z,4.28
2022-09-23T00:12:21.710Z,3.95
2022-09-23T00:14:48.242Z,3.78
2022-09-23T00:17:14.724Z,4.32
2022-09-23T00:19:41.308Z,4.30
2022-09-23T00:22:07.766Z,4.35
2022-09-23T00:24:34.260Z,4.82
2022-09-23T00:27:00.762Z,4.55
2022-09-23T00:29:27.279Z,4.80
2022-09-23T00:31:53.697Z,4.55
2022-09-23T00:34:20.115Z,4.60
2022-09-23T00:36:46.537Z,5.00
2022-09-23T00:39:12.996Z,5.05
2022-09-23T00:41:39.826Z,5.22
2022-09-23T00:44:43.895Z,4.90
2022-09-23T00:47:19.524Z,5.35
2022-09-23T00:49:52.419Z,5.85
2022-09-23T00:52:23.104Z,5.65
2022-09-23T00:54:52.747Z,6.07
2022-09-23T00:57:19.619Z,5.53
2022-09-23T00:59:47.819Z,6.28
2022-09-23T01:02:15.337Z,6.18
2022-09-23T01:04:42.559Z,6.22
2022-09-23T01:07:09.025Z,6.88
2022-09-23T01:09:36.239Z,6.50
2022-09-23T01:12:47.030Z,7.25
2022-09-23T01:15:34.676Z,6.78
2022-09-23T01:18:27.343Z,6.28
2022-09-23T01:21:15.737Z,7.40
2022-09-23T01:24:19.534Z,8.23
2022-09-23T01:27:00.513Z,8.07
2022-09-23T01:29:58.804Z,7.50
2022-09-23T01:32:40.341Z,7.05
2022-09-23T01:37:51.057Z,7.22
2022-09-23T01:40:35.017Z,7.75
2022-09-23T01:43:09.866Z,7.43
2022-09-23T01:45:40.939Z,7.68
2022-09-23T01:48:22.713Z,8.38
2022-09-23T01:51:22.656Z,8.77
2022-09-23T01:54:20.796Z,8.60
2022-09-23T01:57:12.003Z,8.27
2022-09-23T01:59:43.088Z,8.02
2022-09-23T02:02:15.906Z,8.68
2022-09-23T02:04:42.296Z,7.90
2022-09-23T02:07:34.777Z,8.90
2022-09-23T02:10:10.685Z,8.70
2022-09-23T02:12:40.698Z,9.35
2022-09-23T02:15:14.513Z,8.73
2022-09-23T02:17:54.679Z,8.63
2022-09-23T02:20:39.383Z,9.18
2022-09-23T02:23:11.613Z,8.80
2022-09-23T02:26:00.869Z,9.95
2022-09-23T02:28:35.359Z,9.10
2022-09-23T02:31:11.883Z,9.73
2022-09-23T02:34:04.304Z,9.93
2022-09-23T02:36:54.241Z,10.82
2022-09-23T02:39:29.556Z,10.60
2022-09-23T02:42:04.396Z,10.73
2022-09-23T02:44:31.254Z,12.50
2022-09-23T02:46:57.764Z,11.98
2022-09-23T02:49:28.422Z,12.25
2022-09-23T02:51:57.127Z,13.95
2022-09-23T02:54:28.578Z,13.30
2022-09-23T02:56:55.358Z,14.27
2022-09-23T02:59:23.543Z,13.93
2022-09-23T03:02:21.749Z,13.48
2022-09-23T03:05:08.514Z,12.95
2022-09-23T03:08:02.956Z,14.38
2022-09-23T03:10:48.185Z,13.73
2022-09-23T03:13:48.348Z,14.00
2022-09-23T03:16:24.480Z,14.30
2022-09-23T03:19:12.599Z,14.55
2022-09-23T03:21:46.420Z,14.70
2022-09-23T03:24:14.612Z,14.80
2022-09-23T03:26:45.481Z,13.63
2022-09-23T03:29:13.719Z,14.73
2022-09-23T03:31:40.759Z,15.80
2022-09-23T03:34:22.538Z,13.68
2022-09-23T03:36:58.032Z,15.07
2022-09-23T03:39:27.602Z,15.50
2022-09-23T03:41:58.779Z,16.75
2022-09-23T03:44:25.317Z,15.77
2022-09-23T03:46:51.727Z,16.83
2022-09-23T03:49:25.518Z,18.35
2022-09-23T03:51:51.970Z,17.13
2022-09-23T03:54:18.380Z,17.77
2022-09-23T03:56:44.892Z,16.88
2022-09-23T03:59:11.327Z,18.17
2022-09-23T04:01:37.879Z,16.48
2022-09-23T04:04:04.336Z,16.42
2022-09-23T04:06:30.804Z,19.02
2022-09-23T04:08:58.662Z,17.02
2022-09-23T04:11:25.176Z,18.80
2022-09-23T04:13:51.620Z,18.30
2022-09-23T04:16:18.155Z,19.60
2022-09-23T04:18:44.603Z,18.73
2022-09-23T04:21:11.186Z,20.13
2022-09-23T04:23:37.647Z,18.50
2022-09-23T04:26:05.551Z,19.13
2022-09-23T04:28:32.129Z,17.65
2022-09-23T04:30:59.152Z,17.83
2022-09-23T04:33:25.705Z,16.35
2022-09-23T04:35:52.187Z,17.60
2022-09-23T04:38:19.497Z,18.48
2022-09-23T04:40:46.040Z,18.50
2022-09-23T04:43:13.643Z,18.17
2022-09-23T04:45:40.141Z,18.92
2022-09-23T04:48:06.612Z,19.33
2022-09-23T04:50:33.473Z,19.05
2022-09-23T04:52:59.927Z,18.02
2022-09-23T04:55:26.380Z,18.30
2022-09-23T04:57:52.797Z,18.85
2022-09-23T05:00:19.416Z,19.52
2022-09-23T05:02:47.962Z,18.23
2022-09-23T05:05:15.759Z,17.45
2022-09-23T05:07:42.206Z,15.73
2022-09-23T05:10:08.755Z,18.58
2022-09-23T05:12:35.187Z,18.45
2022-09-23T05:15:01.621Z,19.00
2022-09-23T05:17:28.427Z,18.02
2022-09-23T05:19:54.884Z,18.80
2022-09-23T05:22:21.286Z,18.65
2022-09-23T05:24:47.764Z,18.08
2022-09-23T05:27:14.181Z,18.92
2022-09-23T05:29:40.646Z,19.00
2022-09-23T05:32:07.100Z,17.67
2022-09-23T05:34:33.561Z,18.40
2022-09-23T05:37:00.133Z,19.23
2022-09-23T05:39:26.565Z,18.00
2022-09-23T05:41:53.005Z,18.35
2022-09-23T05:44:19.471Z,18.05
2022-09-23T05:46:45.954Z,18.08
2022-09-23T05:49:12.440Z,17.58
2022-09-23T05:51:39.083Z,16.65
2022-09-23T05:54:05.717Z,19.38
2022-09-23T05:56:33.666Z,16.42
2022-09-23T05:59:01.555Z,17.40
2022-09-23T06:01:31.749Z,16.13
2022-09-23T06:03:59.180Z,16.98
2022-09-23T06:06:31.610Z,18.08
2022-09-23T06:08:58.950Z,17.52
2022-09-23T06:11:25.870Z,17.85
2022-09-23T06:13:56.921Z,17.90
2022-09-23T06:16:23.484Z,17.75
2022-09-23T06:18:49.945Z,17.98
2022-09-23T06:21:17.701Z,17.50
2022-09-23T06:23:44.859Z,19.73
2022-09-23T06:26:16.115Z,18.92
2022-09-23T06:28:44.365Z,19.60
2022-09-23T06:31:14.101Z,20.25
2022-09-23T06:33:45.455Z,20.60
2022-09-23T06:36:17.665Z,19.63
2022-09-23T06:38:46.311Z,20.60
2022-09-23T06:41:12.763Z,19.92
2022-09-23T06:43:39.482Z,18.85
2022-09-23T06:46:07.142Z,21.10
2022-09-23T06:48:34.448Z,20.40
2022-09-23T06:51:03.187Z,19.88
2022-09-23T06:53:29.922Z,20.90
2022-09-23T06:56:05.906Z,20.02
2022-09-23T06:58:34.218Z,18.58
2022-09-23T07:01:06.202Z,18.77
2022-09-23T07:03:33.634Z,18.98
2022-09-23T07:06:00.528Z,18.73
2022-09-23T07:08:28.548Z,19.70
2022-09-23T07:10:57.390Z,20.13
2022-09-23T07:13:24.319Z,19.58
2022-09-23T07:15:55.561Z,18.30
2022-09-23T07:18:22.671Z,18.23
2022-09-23T07:20:50.640Z,18.92
2022-09-23T07:23:17.241Z,19.35
2022-09-23T07:25:44.873Z,18.20
2022-09-23T07:28:11.340Z,19.08
2022-09-23T07:30:43.907Z,19.17
2022-09-23T07:33:29.736Z,17.35
2022-09-23T07:35:57.838Z,19.60
2022-09-23T07:38:24.291Z,20.40
2022-09-23T07:40:50.836Z,20.85
2022-09-23T07:43:17.239Z,21.75
2022-09-23T07:45:43.715Z,21.48
2022-09-23T07:48:10.383Z,21.45
2022-09-23T07:50:39.200Z,22.92
2022-09-23T07:53:05.642Z,23.35
2022-09-23T07:55:32.075Z,23.15
2022-09-23T07:57:58.533Z,24.98
2022-09-23T08:00:25.003Z,23.35
2022-09-23T08:02:53.126Z,24.92
2022-09-23T08:05:19.905Z,24.65
2022-09-23T08:07:46.318Z,26.10
2022-09-23T08:10:12.760Z,25.35
2022-09-23T08:12:39.263Z,24.98
2022-09-23T08:15:06.267Z,25.58
2022-09-23T08:17:32.715Z,25.58
2022-09-23T08:19:59.164Z,24.33
2022-09-23T08:22:25.715Z,24.80
2022-09-23T08:24:54.053Z,25.15
2022-09-23T08:27:22.188Z,25.55
2022-09-23T08:29:48.614Z,25.30
2022-09-23T08:32:15.133Z,25.00
2022-09-23T08:34:41.577Z,24.80
2022-09-23T08:37:11.345Z,23.90
2022-09-23T08:39:37.795Z,24.33
2022-09-23T08:42:32.096Z,24.80
2022-09-23T08:45:04.599Z,24.30
2022-09-23T08:47:43.122Z,23.42
2022-09-23T08:50:24.161Z,24.58
2022-09-23T08:53:02.912Z,25.10
2022-09-23T08:55:41.464Z,25.17
2022-09-23T08:58:25.020Z,24.40
2022-09-23T09:01:16.555Z,24.05
2022-09-23T09:03:50.744Z,23.50
2022-09-23T09:06:45.636Z,22.60
2022-09-23T09:09:21.348Z,23.35
2022-09-23T09:11:52.349Z,23.80
2022-09-23T09:14:26.574Z,24.52
2022-09-23T09:17:01.507Z,25.95
2022-09-23T09:19:49.934Z,25.02
2022-09-23T09:22:22.658Z,23.17
2022-09-23T09:24:49.685Z,22.55
2022-09-23T09:27:16.339Z,23.63
2022-09-23T09:29:46.420Z,21.92
2022-09-23T09:32:18.681Z,21.75
2022-09-23T09:35:01.016Z,21.75
2022-09-23T09:37:39.180Z,20.77
2022-09-23T09:40:08.079Z,23.38
2022-09-23T09:42:40.356Z,25.40
2022-09-23T09:45:19.729Z,25.55
2022-09-23T09:48:00.208Z,25.08
2022-09-23T09:50:41.911Z,25.40
2022-09-23T09:53:24.842Z,25.90
2022-09-23T09:56:10.942Z,26.95
2022-09-23T09:58:55.402Z,27.30
2022-09-23T10:01:29.191Z,26.90
2022-09-23T10:03:59.486Z,27.05
2022-09-23T10:06:29.840Z,29.80
2022-09-23T10:09:08.509Z,28.08
2022-09-23T10:11:35.461Z,29.70
2022-09-23T10:14:17.729Z,30.58
2022-09-23T10:16:46.175Z,29.33
2022-09-23T10:19:26.954Z,28.33
2022-09-23T10:21:59.544Z,28.73
2022-09-23T10:24:32.231Z,27.25
2022-09-23T10:27:10.385Z,27.75
2022-09-23T10:29:39.349Z,27.30
2022-09-23T10:32:26.084Z,27.02
2022-09-23T10:35:17.492Z,26.60
2022-09-23T10:37:51.409Z,27.23
2022-09-23T10:40:30.096Z,26.05
2022-09-23T10:43:20.017Z,27.23
2022-09-23T10:45:49.474Z,27.20
2022-09-23T10:48:30.858Z,26.50
2022-09-23T10:53:53.301Z,27.38
2022-09-23T10:56:30.370Z,27.50
2022-09-23T10:59:05.918Z,29.73
2022-09-23T11:01:43.741Z,28.27
2022-09-23T11:04:19.216Z,30.90
2022-09-23T11:07:22.388Z,29.95
2022-09-23T11:10:18.439Z,29.73
2022-09-23T11:13:43.380Z,26.95
2022-09-23T11:16:19.149Z,26.75
2022-09-23T11:19:07.525Z,27.25
2022-09-23T11:22:24.915Z,25.60
2022-09-23T11:25:00.281Z,27.23
2022-09-23T11:27:43.927Z,26.33
2022-09-23T11:30:16.205Z,25.40
2022-09-23T11:33:26.298Z,24.73
2022-09-23T11:35:58.912Z,24.08
2022-09-23T11:38:42.905Z,24.58
2022-09-23T11:41:12.133Z,24.27
2022-09-23T11:43:41.053Z,23.13
2022-09-23T11:46:13.516Z,22.70
2022-09-23T11:48:47.905Z,23.73
2022-09-23T11:51:14.283Z,22.65
2022-09-23T11:53:43.186Z,22.77
2022-09-23T11:56:35.031Z,20.55
2022-09-23T11:59:30.621Z,20.95
2022-09-23T12:02:36.345Z,19.30
2022-09-23T12:05:11.733Z,16.88
2022-09-23T12:07:57.463Z,15.63
2022-09-23T12:10:36.083Z,16.63
2022-09-23T12:13:33.885Z,16.52
2022-09-23T12:16:24.832Z,14.57
2022-09-23T12:19:28.789Z,16.30
2022-09-23T12:22:04.482Z,15.35
2022-09-23T12:25:09.572Z,14.35
2022-09-23T12:27:45.004Z,14.52
2022-09-23T12:30:27.975Z,13.50
2022-09-23T12:33:25.829Z,12.43
2022-09-23T12:35:54.391Z,12.65
2022-09-23T12:38:25.695Z,12.45
2022-09-23T12:40:56.324Z,9.93
2022-09-23T12:43:34.487Z,8.57
2022-09-23T12:46:24.698Z,7.25
2022-09-23T12:48:54.197Z,5.70
2022-09-23T12:51:21.913Z,5.57
2022-09-23T12:53:48.356Z,5.25
2022-09-23T12:56:16.141Z,4.75
2022-09-23T12:58:42.645Z,4.72
2022-09-23T13:01:15.412Z,4.47
2022-09-23T13:03:46.071Z,3.80
2022-09-23T13:06:12.571Z,3.30
2022-09-23T13:08:41.898Z,3.15
2022-09-23T13:11:29.146Z,3.30
2022-09-23T13:13:58.667Z,2.67
2022-09-23T13:16:40.732Z,2.53
2022-09-23T13:19:27.151Z,2.22
2022-09-23T13:21:53.583Z,2.47
2022-09-23T13:24:22.746Z,1.92
2022-09-23T13:27:03.241Z,1.85
2022-09-23T13:30:05.799Z,2.13
2022-09-23T13:32:40.773Z,1.60
2022-09-23T13:35:13.378Z,1.15
2022-09-23T13:37:47.045Z,1.15
2022-09-23T13:40:20.833Z,1.30
2022-09-23T13:43:03.789Z,1.15
2022-09-23T13:45:31.717Z,1.00
2022-09-23T13:48:04.102Z,1.30
2022-09-23T13:50:34.867Z,1.85
2022-09-23T13:55:32.193Z,1.17
2022-09-23T13:58:00.798Z,1.17
2022-09-23T14:00:31.961Z,1.13
2022-09-23T14:05:26.888Z,1.00
2022-09-23T14:07:55.825Z,0.93
2022-09-23T14:10:24.675Z,1.20
2022-09-23T14:12:52.577Z,1.20
2022-09-23T14:15:21.312Z,0.80
2022-09-23T14:17:52.007Z,1.00
2022-09-23T14:20:21.326Z,0.73
2022-09-23T14:22:47.950Z,1.00
2022-09-23T14:25:16.580Z,0.85
2022-09-23T14:27:44.724Z,1.40
2022-09-23T14:30:16.189Z,1.20
2022-09-23T14:32:43.117Z,1.20
2022-09-23T14:35:25.807Z,1.23
2022-09-23T14:37:58.202Z,0.80
2022-09-23T14:40:28.747Z,1.13
2022-09-23T14:42:55.191Z,0.93
2022-09-23T14:45:25.044Z,1.33
2022-09-23T14:47:58.739Z,1.77
2022-09-23T14:50:28.452Z,1.27
2022-09-23T14:52:54.927Z,1.38
2022-09-23T14:55:21.694Z,1.45
2022-09-23T14:57:48.226Z,1.30
2022-09-23T15:00:19.863Z,1.63
2022-09-23T15:03:02.527Z,1.10
2022-09-23T15:05:42.156Z,1.40
2022-09-23T15:08:11.949Z,1.40
2022-09-23T15:10:39.931Z,1.30
2022-09-23T15:13:19.243Z,1.40
2022-09-23T15:15:45.978Z,1.30
2022-09-23T15:18:22.895Z,1.30
2022-09-23T15:20:50.707Z,1.20
2022-09-23T15:23:47.920Z,1.30
2022-09-23T15:26:17.415Z,1.50
2022-09-23T15:28:44.968Z,1.63
2022-09-23T15:31:16.334Z,1.35
2022-09-23T15:33:46.858Z,1.40
2022-09-23T15:36:20.261Z,1.58
2022-09-23T15:38:47.503Z,1.10
2022-09-23T15:41:15.349Z,1.40
2022-09-23T15:43:41.822Z,1.27
2022-09-23T15:46:20.496Z,1.45
2022-09-23T15:48:59.288Z,1.50
2022-09-23T15:51:27.384Z,1.65
2022-09-23T15:53:54.481Z,1.65
2022-09-23T15:56:21.864Z,1.40
2022-09-23T15:58:48.885Z,1.40
2022-09-23T16:01:27.013Z,1.65
2022-09-23T16:03:54.017Z,1.25
2022-09-23T16:06:20.436Z,1.65
2022-09-23T16:08:46.969Z,1.90
2022-09-23T16:11:18.515Z,1.63
2022-09-23T16:13:45.380Z,1.58
2022-09-23T16:16:11.901Z,1.38
2022-09-23T16:18:38.437Z,1.40
2022-09-23T16:21:05.751Z,1.35
2022-09-23T16:23:37.058Z,1.33
2022-09-23T16:26:05.274Z,1.90
2022-09-23T16:28:31.701Z,2.00
2022-09-23T16:30:58.170Z,1.83
2022-09-23T16:33:24.831Z,2.05
2022-09-23T16:35:51.326Z,2.20
2022-09-23T16:38:17.736Z,2.22
2022-09-23T16:40:47.185Z,2.03
2022-09-23T16:43:13.876Z,2.22
2022-09-23T16:45:40.381Z,1.85
2022-09-23T16:48:06.858Z,1.98
2022-09-23T16:50:34.316Z,1.88
2022-09-23T16:53:00.779Z,2.20
2022-09-23T16:55:27.534Z,3.33
2022-09-23T16:57:54.653Z,2.88
2022-09-23T17:00:22.168Z,1.80
2022-09-23T17:02:48.608Z,1.92
2022-09-23T17:05:15.068Z,1.40
2022-09-23T17:07:41.546Z,2.40
2022-09-23T17:10:08.512Z,2.13
2022-09-23T17:12:34.963Z,1.80
2022-09-23T17:15:04.960Z,1.60
2022-09-23T17:17:34.221Z,2.05
2022-09-23T17:20:00.864Z,2.53
2022-09-23T17:22:29.800Z,1.80
2022-09-23T17:24:56.215Z,1.48
2022-09-23T17:27:22.644Z,1.50
2022-09-23T17:29:49.063Z,1.80
2022-09-23T17:32:15.582Z,1.55
2022-09-23T17:34:42.286Z,1.77
2022-09-23T17:37:09.633Z,1.63
2022-09-23T17:39:36.130Z,1.80
2022-09-23T17:42:02.613Z,1.90
2022-09-23T17:44:29.399Z,2.42
2022-09-23T17:46:55.866Z,1.88
2022-09-23T17:49:22.289Z,2.00
2022-09-23T17:51:48.750Z,2.10
2022-09-23T17:54:15.326Z,2.05
2022-09-23T17:56:42.196Z,1.63
2022-09-23T17:59:12.102Z,1.85
2022-09-23T18:01:39.100Z,1.63
2022-09-23T18:04:05.808Z,1.60
2022-09-23T18:06:35.500Z,1.80
2022-09-23T18:09:04.242Z,1.80
2022-09-23T18:11:34.015Z,1.70
2022-09-23T18:14:03.676Z,2.42
2022-09-23T18:16:34.469Z,1.70
2022-09-23T18:19:02.667Z,2.67
2022-09-23T18:21:37.403Z,1.83
2022-09-23T18:24:30.849Z,2.13
2022-09-23T18:26:50.717Z,2.20
2022-09-23T18:29:17.424Z,1.50
2022-09-23T18:31:44.002Z,1.75
2022-09-23T18:34:12.377Z,1.70
2022-09-23T18:36:38.908Z,2.35
2022-09-23T18:39:05.400Z,1.88
2022-09-23T18:41:31.884Z,1.48
2022-09-23T18:43:58.376Z,2.50
2022-09-23T18:46:29.347Z,2.17
2022-09-23T18:48:56.126Z,1.75
2022-09-23T18:51:23.515Z,1.67
2022-09-23T18:53:49.974Z,2.33
2022-09-23T18:56:18.528Z,1.60
2022-09-23T18:58:49.212Z,1.88
2022-09-23T19:01:16.755Z,1.70
2022-09-23T19:03:43.715Z,2.15
2022-09-23T19:06:12.889Z,2.20
2022-09-23T19:08:39.970Z,1.45
2022-09-23T19:11:08.507Z,1.75
2022-09-23T19:13:35.754Z,2.05
2022-09-23T19:16:03.830Z,1.92
2022-09-23T19:18:31.269Z,1.90
2022-09-23T19:20:58.005Z,1.20
2022-09-23T19:23:24.483Z,1.65
2022-09-23T19:25:50.950Z,1.70
2022-09-23T19:28:17.423Z,1.58
2022-09-23T19:30:43.840Z,1.95
2022-09-23T19:33:10.319Z,1.80
2022-09-23T19:35:45.901Z,1.45
2022-09-23T19:38:12.450Z,1.45
2022-09-23T19:40:38.914Z,1.80
2022-09-23T19:43:05.429Z,2.08
2022-09-23T19:45:31.866Z,2.03
2022-09-23T19:47:58.311Z,2.22
2022-09-23T19:50:24.796Z,2.28
2022-09-23T19:52:51.306Z,1.50
2022-09-23T19:55:19.055Z,1.80
2022-09-23T19:57:45.986Z,1.70
2022-09-23T20:00:14.256Z,1.70
2022-09-23T20:02:41.899Z,1.80
2022-09-23T20:05:11.897Z,1.80
2022-09-23T20:07:40.314Z,1.58
2022-09-23T20:10:08.515Z,1.80
2022-09-23T20:12:35.088Z,1.98
2022-09-23T20:15:01.559Z,2.40
2022-09-23T20:17:27.997Z,2.00
2022-09-23T20:19:54.451Z,1.90
2022-09-23T20:22:20.894Z,1.38
2022-09-23T20:24:47.432Z,1.60
2022-09-23T20:27:13.858Z,1.90
2022-09-23T20:29:40.338Z,1.83
2022-09-23T20:32:06.779Z,1.63
2022-09-23T20:34:34.105Z,2.25
2022-09-23T20:37:00.605Z,2.10
2022-09-23T20:39:27.354Z,1.50
2022-09-23T20:41:53.797Z,1.83
2022-09-23T20:44:20.296Z,1.90
2022-09-23T20:46:48.758Z,2.38
2022-09-23T20:49:16.573Z,2.00
2022-09-23T20:51:49.671Z,2.28
2022-09-23T20:54:17.351Z,2.00
2022-09-23T20:56:43.799Z,2.38
2022-09-23T20:59:10.403Z,1.98
2022-09-23T21:01:36.947Z,3.72
2022-09-23T21:04:04.457Z,2.80
2022-09-23T21:06:31.094Z,2.78
2022-09-23T21:08:57.550Z,2.65
2022-09-23T21:11:23.976Z,3.22
2022-09-23T21:13:51.663Z,3.20
2022-09-23T21:16:20.060Z,3.67
2022-09-23T21:18:46.719Z,3.58
2022-09-23T21:21:13.172Z,2.85
2022-09-23T21:23:40.565Z,3.00
2022-09-23T21:26:09.449Z,3.22
2022-09-23T21:28:37.957Z,3.10
2022-09-23T21:31:07.263Z,3.38
2022-09-23T21:33:34.245Z,3.50
2022-09-23T21:36:00.774Z,3.83
2022-09-23T21:38:27.180Z,3.15
2022-09-23T21:41:01.186Z,3.08
2022-09-23T21:43:30.841Z,2.63
2022-09-23T21:45:58.916Z,3.45
2022-09-23T21:48:36.615Z,3.35
2022-09-23T21:51:08.540Z,3.38
2022-09-23T21:53:35.950Z,3.33
2022-09-23T21:56:09.357Z,3.13
2022-09-23T21:58:37.699Z,3.20
2022-09-23T22:01:31.270Z,3.35
2022-09-23T22:04:00.322Z,3.28
2022-09-23T22:06:28.228Z,3.03
2022-09-23T22:08:58.117Z,3.25
2022-09-23T22:11:26.600Z,3.10
2022-09-23T22:13:53.042Z,3.35
2022-09-23T22:16:19.545Z,3.03
2022-09-23T22:18:46.060Z,3.42
2022-09-23T22:21:12.504Z,3.30
2022-09-23T22:23:38.907Z,3.17
2022-09-23T22:26:05.403Z,3.35
2022-09-23T22:28:32.781Z,4.22
2022-09-23T22:30:59.386Z,3.22
2022-09-23T22:33:25.829Z,3.25
2022-09-23T22:35:52.265Z,3.10
2022-09-23T22:38:18.691Z,3.35
2022-09-23T22:40:45.194Z,3.78
2022-09-23T22:43:11.668Z,3.63
2022-09-23T22:45:38.144Z,4.25
2022-09-23T22:48:04.865Z,4.72
2022-09-23T22:50:31.321Z,3.38
2022-09-23T22:52:57.774Z,3.95
2022-09-23T22:55:24.213Z,4.80
2022-09-23T22:57:50.669Z,4.82
2022-09-23T23:00:17.110Z,4.00
2022-09-23T23:02:43.533Z,4.15
2022-09-23T23:05:10.049Z,4.50
2022-09-23T23:07:36.517Z,4.95
2022-09-23T23:10:03.070Z,4.70
2022-09-23T23:12:29.487Z,5.05
2022-09-23T23:14:55.952Z,4.70
2022-09-23T23:17:22.393Z,5.15
2022-09-23T23:19:48.815Z,4.40
2022-09-23T23:22:15.327Z,5.25
2022-09-23T23:24:41.819Z,4.78
2022-09-23T23:27:08.252Z,4.85
2022-09-23T23:29:34.720Z,5.25
2022-09-23T23:32:01.291Z,4.75
2022-09-23T23:34:27.810Z,4.90
2022-09-23T23:36:54.269Z,4.80
2022-09-23T23:39:22.189Z,5.90
2022-09-23T23:41:51.653Z,5.32
2022-09-23T23:44:18.142Z,5.72
2022-09-23T23:46:44.610Z,6.35
2022-09-23T23:49:11.104Z,7.07
2022-09-23T23:51:37.589Z,6.32
2022-09-23T23:54:04.240Z,5.90
2022-09-23T23:56:30.860Z,6.70
2022-09-23T23:59:01.727Z,6.18
